AAL2678 MUHA-KMIA
Flight info
| Callsign | AAL2678 |
|---|---|
| Flight time | 0h 42m |
| Altitude | 25000 |
| Route | EPMAR4A MAXIM SNDBR3 |
| Aircraft | A21N/M-SDE2E3FGHIRWXY/LB1 |
Departure
| Time | 2026-05-03 21:21 |
|---|---|
| Airport | José Martí International Airport (MUHA) |
Arrival
| Time | 2026-05-03 22:04 |
|---|---|
| Airport | Miami International Airport (KMIA) |
| Time | Latitude | Longitude | Altitude | Speed | Heading |
|---|---|---|---|---|---|
| 2026-05-03 20:51 | 22.99637 | -82.40735 | 218 ft | 0 kts | 54° |
| 2026-05-03 21:07 | 22.99627 | -82.40745 | 218 ft | 2 kts | 26° |
| 2026-05-03 21:07 | 22.99613 | -82.40752 | 218 ft | 2 kts | 34° |
| 2026-05-03 21:08 | 22.99603 | -82.40764 | 218 ft | 2 kts | 70° |
| 2026-05-03 21:08 | 22.99602 | -82.40781 | 218 ft | 2 kts | 107° |
| 2026-05-03 21:08 | 22.99609 | -82.40794 | 219 ft | 0 kts | 141° |
| 2026-05-03 21:08 | 22.99616 | -82.40799 | 219 ft | 1 kts | 162° |
| 2026-05-03 21:09 | 22.99623 | -82.40802 | 219 ft | 1 kts | 146° |
| 2026-05-03 21:09 | 22.99624 | -82.40803 | 219 ft | 0 kts | 146° |
| 2026-05-03 21:12 | 22.99620 | -82.40800 | 219 ft | 1 kts | 145° |
| 2026-05-03 21:12 | 22.99602 | -82.40785 | 218 ft | 3 kts | 143° |
| 2026-05-03 21:13 | 22.99579 | -82.40767 | 218 ft | 5 kts | 143° |
| 2026-05-03 21:13 | 22.99544 | -82.40739 | 217 ft | 7 kts | 144° |
| 2026-05-03 21:13 | 22.99500 | -82.40707 | 216 ft | 6 kts | 147° |
| 2026-05-03 21:13 | 22.99457 | -82.40718 | 216 ft | 8 kts | 231° |
| 2026-05-03 21:14 | 22.99421 | -82.40773 | 215 ft | 9 kts | 234° |
| 2026-05-03 21:14 | 22.99379 | -82.40836 | 214 ft | 9 kts | 233° |
| 2026-05-03 21:14 | 22.99322 | -82.40831 | 213 ft | 10 kts | 141° |
| 2026-05-03 21:14 | 22.99267 | -82.40787 | 212 ft | 10 kts | 144° |
| 2026-05-03 21:15 | 22.99210 | -82.40779 | 211 ft | 9 kts | 226° |
| 2026-05-03 21:15 | 22.99168 | -82.40843 | 210 ft | 11 kts | 235° |
| 2026-05-03 21:15 | 22.99124 | -82.40910 | 211 ft | 11 kts | 234° |
| 2026-05-03 21:15 | 22.99063 | -82.41001 | 211 ft | 17 kts | 234° |
| 2026-05-03 21:16 | 22.98993 | -82.41107 | 212 ft | 16 kts | 235° |
| 2026-05-03 21:16 | 22.98928 | -82.41206 | 214 ft | 15 kts | 234° |
| 2026-05-03 21:16 | 22.98870 | -82.41293 | 215 ft | 13 kts | 234° |
| 2026-05-03 21:16 | 22.98806 | -82.41390 | 216 ft | 19 kts | 234° |
| 2026-05-03 21:17 | 22.98717 | -82.41524 | 216 ft | 23 kts | 234° |
| 2026-05-03 21:17 | 22.98654 | -82.41619 | 216 ft | 22 kts | 234° |
| 2026-05-03 21:17 | 22.98541 | -82.41788 | 219 ft | 19 kts | 234° |
| 2026-05-03 21:17 | 22.98463 | -82.41907 | 219 ft | 18 kts | 234° |
| 2026-05-03 21:18 | 22.98390 | -82.42017 | 222 ft | 18 kts | 234° |
| 2026-05-03 21:18 | 22.98301 | -82.42151 | 222 ft | 23 kts | 234° |
| 2026-05-03 21:18 | 22.98209 | -82.42289 | 222 ft | 21 kts | 234° |
| 2026-05-03 21:18 | 22.98124 | -82.42420 | 222 ft | 20 kts | 234° |
| 2026-05-03 21:19 | 22.98045 | -82.42539 | 219 ft | 13 kts | 234° |
| 2026-05-03 21:19 | 22.97975 | -82.42561 | 219 ft | 10 kts | 152° |
| 2026-05-03 21:19 | 22.97915 | -82.42519 | 219 ft | 10 kts | 141° |
| 2026-05-03 21:19 | 22.97884 | -82.42475 | 219 ft | 5 kts | 90° |
| 2026-05-03 21:20 | 22.97903 | -82.42434 | 219 ft | 6 kts | 55° |
| 2026-05-03 21:20 | 22.97978 | -82.42321 | 222 ft | 48 kts | 54° |
| 2026-05-03 21:20 | 22.98326 | -82.41797 | 219 ft | 120 kts | 54° |
| 2026-05-03 21:20 | 22.98940 | -82.40870 | 216 ft | 177 kts | 55° |
| 2026-05-03 21:21 | 22.99689 | -82.39751 | 671 ft | 187 kts | 54° |
| 2026-05-03 21:21 | 23.00468 | -82.38609 | 1322 ft | 191 kts | 53° |
| 2026-05-03 21:21 | 23.01236 | -82.37454 | 2036 ft | 192 kts | 54° |
| 2026-05-03 21:21 | 23.02021 | -82.36241 | 2560 ft | 205 kts | 55° |
| 2026-05-03 21:22 | 23.02880 | -82.34932 | 3028 ft | 222 kts | 55° |
| 2026-05-03 21:22 | 23.03813 | -82.33521 | 3497 ft | 239 kts | 56° |
| 2026-05-03 21:22 | 23.04817 | -82.31971 | 3972 ft | 259 kts | 56° |
| 2026-05-03 21:22 | 23.05889 | -82.30321 | 4531 ft | 276 kts | 55° |
| 2026-05-03 21:23 | 23.07038 | -82.28599 | 5209 ft | 287 kts | 54° |
| 2026-05-03 21:23 | 23.08199 | -82.26872 | 6063 ft | 290 kts | 54° |
| 2026-05-03 21:23 | 23.09382 | -82.25104 | 6911 ft | 293 kts | 54° |
| 2026-05-03 21:23 | 23.10587 | -82.23292 | 7719 ft | 296 kts | 54° |
| 2026-05-03 21:24 | 23.11784 | -82.21488 | 8442 ft | 301 kts | 54° |
| 2026-05-03 21:24 | 23.13070 | -82.19676 | 9160 ft | 305 kts | 44° |
| 2026-05-03 21:24 | 23.14849 | -82.18473 | 9854 ft | 305 kts | 15° |
| 2026-05-03 21:24 | 23.16941 | -82.18242 | 10520 ft | 304 kts | 350° |
| 2026-05-03 21:25 | 23.18995 | -82.18904 | 10923 ft | 315 kts | 336° |
| 2026-05-03 21:25 | 23.21092 | -82.19814 | 11250 ft | 333 kts | 335° |
| 2026-05-03 21:25 | 23.23292 | -82.20751 | 11522 ft | 350 kts | 336° |
| 2026-05-03 21:25 | 23.25604 | -82.21707 | 11989 ft | 360 kts | 337° |
| 2026-05-03 21:26 | 23.27973 | -82.22666 | 12656 ft | 363 kts | 337° |
| 2026-05-03 21:26 | 23.30343 | -82.23622 | 13323 ft | 366 kts | 337° |
| 2026-05-03 21:26 | 23.32759 | -82.24593 | 13971 ft | 369 kts | 336° |
| 2026-05-03 21:26 | 23.35119 | -82.25677 | 14520 ft | 371 kts | 327° |
| 2026-05-03 21:27 | 23.37083 | -82.27467 | 15087 ft | 368 kts | 307° |
| 2026-05-03 21:27 | 23.38448 | -82.29803 | 15712 ft | 367 kts | 296° |
| 2026-05-03 21:27 | 23.39624 | -82.32282 | 16269 ft | 370 kts | 294° |
| 2026-05-03 21:27 | 23.40776 | -82.34788 | 16821 ft | 374 kts | 294° |
| 2026-05-03 21:28 | 23.41938 | -82.37302 | 17388 ft | 377 kts | 294° |
| 2026-05-03 21:28 | 23.43120 | -82.39850 | 17896 ft | 380 kts | 294° |
| 2026-05-03 21:28 | 23.44327 | -82.42441 | 18468 ft | 382 kts | 294° |
| 2026-05-03 21:28 | 23.45523 | -82.44993 | 19038 ft | 384 kts | 294° |
| 2026-05-03 21:29 | 23.46746 | -82.47595 | 19582 ft | 385 kts | 294° |
| 2026-05-03 21:29 | 23.47968 | -82.50191 | 20106 ft | 387 kts | 294° |
| 2026-05-03 21:29 | 23.49191 | -82.52788 | 20617 ft | 389 kts | 294° |
| 2026-05-03 21:29 | 23.50433 | -82.55399 | 21094 ft | 391 kts | 294° |
| 2026-05-03 21:30 | 23.51702 | -82.58050 | 21591 ft | 393 kts | 294° |
| 2026-05-03 21:30 | 23.52959 | -82.60677 | 22076 ft | 394 kts | 294° |
| 2026-05-03 21:30 | 23.54231 | -82.63321 | 22546 ft | 396 kts | 294° |
| 2026-05-03 21:30 | 23.55514 | -82.65966 | 23005 ft | 397 kts | 294° |
| 2026-05-03 21:31 | 23.56806 | -82.68617 | 23483 ft | 399 kts | 294° |
| 2026-05-03 21:31 | 23.58117 | -82.71285 | 23922 ft | 401 kts | 294° |
| 2026-05-03 21:31 | 23.59444 | -82.73979 | 24322 ft | 404 kts | 294° |
| 2026-05-03 21:31 | 23.60786 | -82.76666 | 24744 ft | 407 kts | 296° |
| 2026-05-03 21:32 | 23.62565 | -82.79097 | 24957 ft | 421 kts | 314° |
| 2026-05-03 21:32 | 23.65111 | -82.80786 | 24985 ft | 435 kts | 331° |
| 2026-05-03 21:32 | 23.68050 | -82.81602 | 24983 ft | 447 kts | 347° |
| 2026-05-03 21:32 | 23.71228 | -82.81458 | 24979 ft | 457 kts | 5° |
| 2026-05-03 21:33 | 23.74240 | -82.80293 | 24977 ft | 465 kts | 24° |
| 2026-05-03 21:33 | 23.76829 | -82.78176 | 24986 ft | 469 kts | 41° |
| 2026-05-03 21:33 | 23.79086 | -82.75632 | 24989 ft | 468 kts | 43° |
| 2026-05-03 21:33 | 23.81318 | -82.73035 | 24985 ft | 467 kts | 44° |
| 2026-05-03 21:34 | 23.83544 | -82.70459 | 24980 ft | 467 kts | 43° |
| 2026-05-03 21:34 | 23.85792 | -82.67889 | 24980 ft | 467 kts | 43° |
| 2026-05-03 21:34 | 23.88028 | -82.65361 | 24979 ft | 467 kts | 43° |
| 2026-05-03 21:34 | 23.90291 | -82.62813 | 24977 ft | 468 kts | 42° |
| 2026-05-03 21:35 | 23.92574 | -82.60246 | 24980 ft | 467 kts | 43° |
| 2026-05-03 21:35 | 23.94828 | -82.57712 | 24978 ft | 468 kts | 42° |
| 2026-05-03 21:35 | 23.97090 | -82.55169 | 24978 ft | 467 kts | 42° |
| 2026-05-03 21:35 | 23.99354 | -82.52622 | 24977 ft | 467 kts | 42° |
| 2026-05-03 21:36 | 24.01611 | -82.50060 | 24979 ft | 467 kts | 43° |
| 2026-05-03 21:36 | 24.03851 | -82.47478 | 24978 ft | 467 kts | 43° |
| 2026-05-03 21:36 | 24.06091 | -82.44879 | 24980 ft | 467 kts | 43° |
| 2026-05-03 21:36 | 24.08306 | -82.42312 | 24979 ft | 467 kts | 43° |
| 2026-05-03 21:37 | 24.10541 | -82.39722 | 24979 ft | 467 kts | 43° |
| 2026-05-03 21:37 | 24.12765 | -82.37148 | 24977 ft | 467 kts | 43° |
| 2026-05-03 21:37 | 24.14977 | -82.34501 | 24974 ft | 469 kts | 47° |
| 2026-05-03 21:37 | 24.16940 | -82.31625 | 24973 ft | 471 kts | 54° |
| 2026-05-03 21:38 | 24.18583 | -82.28520 | 24976 ft | 472 kts | 62° |
| 2026-05-03 21:38 | 24.20014 | -82.25317 | 24975 ft | 472 kts | 64° |
| 2026-05-03 21:38 | 24.21414 | -82.22047 | 24976 ft | 472 kts | 64° |
| 2026-05-03 21:38 | 24.22790 | -82.18816 | 24975 ft | 472 kts | 64° |
| 2026-05-03 21:39 | 24.24196 | -82.15543 | 24979 ft | 472 kts | 64° |
| 2026-05-03 21:39 | 24.25589 | -82.12319 | 24981 ft | 472 kts | 63° |
| 2026-05-03 21:39 | 24.27007 | -82.09056 | 24982 ft | 472 kts | 63° |
| 2026-05-03 21:39 | 24.28422 | -82.05806 | 24981 ft | 472 kts | 64° |
| 2026-05-03 21:40 | 24.29820 | -82.02593 | 24977 ft | 472 kts | 63° |
| 2026-05-03 21:40 | 24.31238 | -81.99328 | 24975 ft | 472 kts | 63° |
| 2026-05-03 21:40 | 24.32636 | -81.96113 | 24976 ft | 472 kts | 63° |
| 2026-05-03 21:40 | 24.34050 | -81.92859 | 24977 ft | 472 kts | 63° |
| 2026-05-03 21:41 | 24.35458 | -81.89613 | 24981 ft | 472 kts | 63° |
| 2026-05-03 21:41 | 24.36867 | -81.86370 | 24982 ft | 472 kts | 63° |
| 2026-05-03 21:41 | 24.38285 | -81.83097 | 24981 ft | 471 kts | 63° |
| 2026-05-03 21:41 | 24.39675 | -81.79885 | 24984 ft | 471 kts | 63° |
| 2026-05-03 21:42 | 24.41087 | -81.76622 | 24983 ft | 471 kts | 63° |
| 2026-05-03 21:42 | 24.42474 | -81.73414 | 24981 ft | 471 kts | 63° |
| 2026-05-03 21:42 | 24.43885 | -81.70161 | 24981 ft | 471 kts | 62° |
| 2026-05-03 21:42 | 24.45457 | -81.67017 | 24981 ft | 470 kts | 57° |
| 2026-05-03 21:43 | 24.47279 | -81.64061 | 24979 ft | 468 kts | 51° |
| 2026-05-03 21:43 | 24.49307 | -81.61266 | 24980 ft | 468 kts | 47° |
| 2026-05-03 21:43 | 24.51384 | -81.58539 | 24981 ft | 468 kts | 47° |
| 2026-05-03 21:43 | 24.53496 | -81.55784 | 24983 ft | 468 kts | 47° |
| 2026-05-03 21:44 | 24.55580 | -81.53052 | 24982 ft | 469 kts | 47° |
| 2026-05-03 21:44 | 24.57659 | -81.50310 | 24980 ft | 469 kts | 47° |
| 2026-05-03 21:44 | 24.59749 | -81.47540 | 24978 ft | 469 kts | 47° |
| 2026-05-03 21:44 | 24.61824 | -81.44778 | 24976 ft | 469 kts | 47° |
| 2026-05-03 21:45 | 24.63872 | -81.42053 | 24976 ft | 469 kts | 47° |
| 2026-05-03 21:45 | 24.65965 | -81.39261 | 24967 ft | 468 kts | 47° |
| 2026-05-03 21:45 | 24.68005 | -81.36540 | 24968 ft | 463 kts | 47° |
| 2026-05-03 21:45 | 24.70048 | -81.33818 | 24922 ft | 460 kts | 48° |
| 2026-05-03 21:46 | 24.72095 | -81.31094 | 24500 ft | 460 kts | 48° |
| 2026-05-03 21:46 | 24.74111 | -81.28404 | 24109 ft | 455 kts | 48° |
| 2026-05-03 21:46 | 24.76128 | -81.25711 | 23625 ft | 452 kts | 48° |
| 2026-05-03 21:46 | 24.78106 | -81.23067 | 23213 ft | 447 kts | 48° |
| 2026-05-03 21:47 | 24.80038 | -81.20477 | 23144 ft | 432 kts | 48° |
| 2026-05-03 21:47 | 24.81974 | -81.17890 | 23105 ft | 440 kts | 47° |
| 2026-05-03 21:47 | 24.83914 | -81.15299 | 23056 ft | 444 kts | 47° |
| 2026-05-03 21:47 | 24.85951 | -81.12746 | 22964 ft | 440 kts | 39° |
| 2026-05-03 21:48 | 24.88401 | -81.10807 | 22774 ft | 434 kts | 23° |
| 2026-05-03 21:48 | 24.91096 | -81.09424 | 22407 ft | 425 kts | 18° |
| 2026-05-03 21:48 | 24.93804 | -81.08138 | 21912 ft | 424 kts | 18° |
| 2026-05-03 21:48 | 24.96515 | -81.06857 | 21539 ft | 418 kts | 18° |
| 2026-05-03 21:49 | 24.99169 | -81.05585 | 21124 ft | 415 kts | 18° |
| 2026-05-03 21:49 | 25.01811 | -81.04301 | 20671 ft | 412 kts | 18° |
| 2026-05-03 21:49 | 25.04430 | -81.03022 | 20223 ft | 409 kts | 19° |
| 2026-05-03 21:49 | 25.07007 | -81.01755 | 19774 ft | 406 kts | 19° |
| 2026-05-03 21:50 | 25.09575 | -81.00487 | 19323 ft | 403 kts | 19° |
| 2026-05-03 21:50 | 25.12141 | -80.99219 | 18869 ft | 401 kts | 19° |
| 2026-05-03 21:50 | 25.14667 | -80.97970 | 18498 ft | 396 kts | 19° |
| 2026-05-03 21:50 | 25.17154 | -80.96738 | 18118 ft | 390 kts | 19° |
| 2026-05-03 21:51 | 25.19611 | -80.95520 | 17654 ft | 384 kts | 19° |
| 2026-05-03 21:51 | 25.22015 | -80.94328 | 17267 ft | 378 kts | 19° |
| 2026-05-03 21:51 | 25.24388 | -80.93152 | 16870 ft | 372 kts | 19° |
| 2026-05-03 21:51 | 25.26738 | -80.91987 | 16581 ft | 360 kts | 19° |
| 2026-05-03 21:52 | 25.28972 | -80.90875 | 16314 ft | 348 kts | 19° |
| 2026-05-03 21:52 | 25.31155 | -80.89793 | 15902 ft | 342 kts | 20° |
| 2026-05-03 21:52 | 25.33325 | -80.88719 | 15423 ft | 339 kts | 20° |
| 2026-05-03 21:52 | 25.35469 | -80.87656 | 14919 ft | 336 kts | 20° |
| 2026-05-03 21:53 | 25.37587 | -80.86604 | 14415 ft | 333 kts | 20° |
| 2026-05-03 21:53 | 25.39679 | -80.85578 | 13932 ft | 329 kts | 20° |
| 2026-05-03 21:53 | 25.41805 | -80.84590 | 13437 ft | 326 kts | 19° |
| 2026-05-03 21:53 | 25.43884 | -80.83640 | 12960 ft | 323 kts | 19° |
| 2026-05-03 21:54 | 25.45956 | -80.82771 | 12518 ft | 320 kts | 15° |
| 2026-05-03 21:54 | 25.48054 | -80.81973 | 12197 ft | 315 kts | 15° |
| 2026-05-03 21:54 | 25.50109 | -80.81204 | 11903 ft | 310 kts | 15° |
| 2026-05-03 21:54 | 25.52166 | -80.80434 | 11598 ft | 306 kts | 15° |
| 2026-05-03 21:55 | 25.54151 | -80.79688 | 11311 ft | 301 kts | 15° |
| 2026-05-03 21:55 | 25.56121 | -80.78945 | 10998 ft | 295 kts | 15° |
| 2026-05-03 21:55 | 25.58069 | -80.78213 | 10501 ft | 295 kts | 15° |
| 2026-05-03 21:55 | 25.60007 | -80.77483 | 10023 ft | 294 kts | 15° |
| 2026-05-03 21:56 | 25.61939 | -80.76754 | 9570 ft | 292 kts | 15° |
| 2026-05-03 21:56 | 25.63853 | -80.75991 | 9109 ft | 291 kts | 22° |
| 2026-05-03 21:56 | 25.65474 | -80.74680 | 8626 ft | 294 kts | 47° |
| 2026-05-03 21:56 | 25.66733 | -80.72903 | 8205 ft | 291 kts | 52° |
| 2026-05-03 21:57 | 25.67921 | -80.71096 | 7757 ft | 289 kts | 53° |
| 2026-05-03 21:57 | 25.69106 | -80.69300 | 7304 ft | 287 kts | 52° |
| 2026-05-03 21:57 | 25.70287 | -80.67533 | 6875 ft | 285 kts | 52° |
| 2026-05-03 21:57 | 25.71463 | -80.65794 | 6437 ft | 282 kts | 52° |
| 2026-05-03 21:58 | 25.72642 | -80.64063 | 5995 ft | 279 kts | 52° |
| 2026-05-03 21:58 | 25.73801 | -80.62366 | 5591 ft | 275 kts | 52° |
| 2026-05-03 21:58 | 25.74944 | -80.60692 | 5136 ft | 274 kts | 52° |
| 2026-05-03 21:58 | 25.76092 | -80.59011 | 4655 ft | 274 kts | 52° |
| 2026-05-03 21:59 | 25.77154 | -80.57272 | 4168 ft | 274 kts | 65° |
| 2026-05-03 21:59 | 25.77641 | -80.55258 | 3958 ft | 264 kts | 83° |
| 2026-05-03 21:59 | 25.77780 | -80.53271 | 3716 ft | 258 kts | 87° |
| 2026-05-03 21:59 | 25.77838 | -80.51276 | 3386 ft | 256 kts | 88° |
| 2026-05-03 22:00 | 25.77890 | -80.49332 | 3060 ft | 249 kts | 87° |
| 2026-05-03 22:00 | 25.77954 | -80.47465 | 2743 ft | 235 kts | 86° |
| 2026-05-03 22:00 | 25.78023 | -80.45713 | 2451 ft | 224 kts | 86° |
| 2026-05-03 22:00 | 25.78093 | -80.44029 | 2218 ft | 212 kts | 86° |
| 2026-05-03 22:01 | 25.78156 | -80.42464 | 1999 ft | 198 kts | 86° |
| 2026-05-03 22:01 | 25.78218 | -80.40962 | 1713 ft | 186 kts | 86° |
| 2026-05-03 22:01 | 25.78275 | -80.39589 | 1478 ft | 173 kts | 86° |
| 2026-05-03 22:01 | 25.78328 | -80.38303 | 1232 ft | 160 kts | 86° |
| 2026-05-03 22:02 | 25.78377 | -80.37128 | 1022 ft | 145 kts | 86° |
| 2026-05-03 22:02 | 25.78420 | -80.36032 | 846 ft | 141 kts | 85° |
| 2026-05-03 22:02 | 25.78468 | -80.34948 | 686 ft | 141 kts | 86° |
| 2026-05-03 22:02 | 25.78513 | -80.33868 | 513 ft | 140 kts | 86° |
| 2026-05-03 22:03 | 25.78557 | -80.32787 | 333 ft | 140 kts | 86° |
| 2026-05-03 22:03 | 25.78599 | -80.31709 | 153 ft | 139 kts | 86° |
| 2026-05-03 22:03 | 25.78645 | -80.30638 | 13 ft | 134 kts | 88° |
| 2026-05-03 22:03 | 25.78681 | -80.29772 | 12 ft | 88 kts | 88° |
| 2026-05-03 22:04 | 25.78705 | -80.29298 | 15 ft | 33 kts | 72° |
| 2026-05-03 22:04 | 25.78780 | -80.29179 | 15 ft | 12 kts | 40° |
| 2026-05-03 22:04 | 25.78833 | -80.29157 | 15 ft | 5 kts | 357° |
| 2026-05-03 22:04 | 25.78844 | -80.29139 | 15 ft | 4 kts | 107° |
| 2026-05-03 22:05 | 25.78831 | -80.29100 | 15 ft | 6 kts | 108° |
| 2026-05-03 22:05 | 25.78823 | -80.29031 | 15 ft | 10 kts | 86° |
| 2026-05-03 22:05 | 25.78840 | -80.28952 | 15 ft | 10 kts | 74° |
| 2026-05-03 22:05 | 25.78867 | -80.28876 | 15 ft | 10 kts | 37° |
| 2026-05-03 22:06 | 25.78942 | -80.28870 | 15 ft | 11 kts | 358° |
| 2026-05-03 22:06 | 25.79023 | -80.28874 | 15 ft | 11 kts | 356° |
| 2026-05-03 22:06 | 25.79108 | -80.28879 | 15 ft | 12 kts | 357° |
| 2026-05-03 22:06 | 25.79198 | -80.28882 | 14 ft | 13 kts | 1° |
| 2026-05-03 22:07 | 25.79293 | -80.28883 | 14 ft | 14 kts | 358° |
| 2026-05-03 22:07 | 25.79392 | -80.28887 | 14 ft | 14 kts | 357° |
| 2026-05-03 22:07 | 25.79500 | -80.28893 | 12 ft | 16 kts | 357° |
| 2026-05-03 22:07 | 25.79613 | -80.28899 | 12 ft | 16 kts | 358° |
| 2026-05-03 22:08 | 25.79725 | -80.28904 | 12 ft | 16 kts | 358° |
| 2026-05-03 22:08 | 25.79833 | -80.28910 | 12 ft | 11 kts | 357° |
| 2026-05-03 22:08 | 25.79905 | -80.28912 | 12 ft | 7 kts | 14° |
| 2026-05-03 22:08 | 25.79930 | -80.28861 | 12 ft | 8 kts | 85° |
| 2026-05-03 22:09 | 25.79934 | -80.28791 | 12 ft | 9 kts | 88° |
| 2026-05-03 22:09 | 25.79937 | -80.28715 | 12 ft | 10 kts | 87° |
| 2026-05-03 22:09 | 25.79940 | -80.28633 | 12 ft | 10 kts | 87° |
| 2026-05-03 22:10 | 25.79947 | -80.28470 | 12 ft | 5 kts | 94° |
| 2026-05-03 22:10 | 25.79928 | -80.28435 | 12 ft | 5 kts | 131° |
| 2026-05-03 22:10 | 25.79894 | -80.28407 | 12 ft | 6 kts | 129° |
| 2026-05-03 22:10 | 25.79887 | -80.28355 | 12 ft | 7 kts | 89° |
| 2026-05-03 22:11 | 25.79874 | -80.28320 | 12 ft | 3 kts | 159° |
| 2026-05-03 22:11 | 25.79853 | -80.28319 | 12 ft | 2 kts | 181° |
| 2026-05-03 22:11 | 25.79833 | -80.28319 | 12 ft | 2 kts | 178° |
| 2026-05-03 22:11 | 25.79822 | -80.28318 | 12 ft | 0 kts | 178° |